EDXW/GWT METAR and TAF weather

Enter ICAO airport designator
Station Type Date Time Source
EDXW METAR 2024/04/15 09:50 UTC NOAA

EDXW 150950Z 19016KT 9999 FEW022 09/05 Q1003


Station Type Date Time Source
EDXW Decoded METAR 2024/04/15 09:50 UTC NOAA

Westerland / Sylt, Germany (EDXW) 54-55N 008-21E 20M
Apr 15, 2024 - 05:50 AM EDT / 2024.04.15 0950 UTC
Wind: from the S (190 degrees) at 18 MPH (16 KT):0
Visibility: greater than 7 mile(s):0
Sky conditions: mostly clear
Temperature: 48 F (9 C)
Dew Point: 41 F (5 C)
Relative Humidity: 75%
Pressure (altimeter): 29.62 in. Hg (1003 hPa)
ob: EDXW 150950Z 19016KT 9999 FEW022 09/05 Q1003
cycle: 10

Station Type Date Time Source
EDXW TAF 2009/07/07 14:00 UTC NOAA